Time;durP1;ratioP1;P1;durP2;ratioP2;P2;SDS_P1;SDS_P2;PMS_P1;PMS_P2;Temp;Humidity;BMP_temperature;BMP_pressure;BME280_temperature;BME280_humidity;BME280_pressure;Samples;Min_cycle;Max_cycle;Signal;HPM_P1;HPM_P2
2022/04/15 00:01:37;;;;;;;52.72;32.38;;;;;;;9.51;100.00;101471.53;7392671;19;20019;-67
2022/04/15 00:04:07;;;;;;;49.53;30.98;;;;;;;9.48;100.00;101476.78;7392591;19;20111;-67
2022/04/15 00:06:35;;;;;;;48.25;31.02;;;;;;;9.44;100.00;101473.31;7394436;19;20031;-67
2022/04/15 00:09:04;;;;;;;47.70;31.75;;;;;;;9.42;100.00;101468.97;7392473;19;20047;-67
2022/04/15 00:11:32;;;;;;;47.72;32.08;;;;;;;9.39;100.00;101480.31;7392590;19;20039;-67
2022/04/15 00:14:00;;;;;;;45.63;30.38;;;;;;;9.37;100.00;101473.34;7394125;19;20023;-67
2022/04/15 00:16:28;;;;;;;45.53;30.92;;;;;;;9.33;100.00;101475.13;7394060;19;20015;-67
2022/04/15 00:18:57;;;;;;;42.40;28.45;;;;;;;9.24;100.00;101470.78;7393973;19;20019;-67
2022/04/15 00:21:27;;;;;;;42.65;29.77;;;;;;;9.28;100.00;101469.88;7391926;19;20471;-67
2022/04/15 00:23:57;;;;;;;40.58;28.50;;;;;;;9.25;100.00;101469.91;7394082;19;20027;-67
2022/04/15 00:26:25;;;;;;;44.47;28.15;;;;;;;9.26;100.00;101476.00;7393901;19;20015;-67
2022/04/15 00:28:53;;;;;;;47.85;30.23;;;;;;;9.23;100.00;101466.44;7393640;19;20026;-67
2022/04/15 00:31:22;;;;;;;43.53;29.05;;;;;;;9.23;100.00;101465.56;7391615;19;20018;-67
2022/04/15 00:33:50;;;;;;;43.17;28.58;;;;;;;9.21;100.00;101470.81;7391622;19;20472;-67
2022/04/15 00:36:18;;;;;;;45.65;29.55;;;;;;;9.19;100.00;101472.56;7391522;19;20035;-67
2022/04/15 00:38:49;;;;;;;39.17;28.17;;;;;;;9.18;100.00;101477.81;7392807;19;20031;-67
2022/04/15 00:41:17;;;;;;;42.75;27.92;;;;;;;9.15;100.00;101470.84;7391967;19;20022;-66
2022/04/15 00:43:46;;;;;;;48.40;28.98;;;;;;;9.15;100.00;101475.19;7391193;19;20022;-67
2022/04/15 00:46:14;;;;;;;44.05;29.45;;;;;;;9.13;100.00;101475.19;7393699;19;20498;-66
2022/04/15 00:48:42;;;;;;;44.20;28.98;;;;;;;9.11;100.00;101469.09;7400636;19;20037;-66
2022/04/15 00:51:11;;;;;;;44.30;27.98;;;;;;;9.08;100.00;101476.97;7397435;19;20389;-66
2022/04/15 00:53:42;;;;;;;46.50;28.38;;;;;;;9.07;100.00;101475.22;7400533;19;20014;-67
2022/04/15 00:56:14;;;;;;;44.08;28.65;;;;;;;9.09;100.00;101473.47;7400041;19;20482;-66
2022/04/15 00:58:43;;;;;;;43.25;28.40;;;;;;;9.10;100.00;101475.22;7398064;19;20043;-67
2022/04/15 01:01:12;;;;;;;47.92;29.98;;;;;;;9.08;100.00;101471.72;7397556;19;20027;-66
2022/04/15 01:03:40;;;;;;;46.53;30.25;;;;;;;9.10;100.00;101481.31;7397513;19;20553;-66
2022/04/15 01:06:09;;;;;;;48.40;30.33;;;;;;;9.09;100.00;101466.47;7400086;19;20018;-66
2022/04/15 01:08:42;;;;;;;45.55;28.48;;;;;;;9.11;100.00;101469.09;7397457;19;20022;-67
2022/04/15 01:11:14;;;;;;;46.80;29.98;;;;;;;9.11;100.00;101467.38;7398309;19;20021;-66
2022/04/15 01:13:43;;;;;;;47.17;29.73;;;;;;;9.11;100.00;101461.22;7401528;19;20022;-66
2022/04/15 01:16:12;;;;;;;47.40;30.35;;;;;;;9.11;100.00;101467.38;7397413;19;20035;-66
2022/04/15 01:18:41;;;;;;;46.65;30.20;;;;;;;9.10;100.00;101459.53;7399587;19;20031;-66
2022/04/15 01:21:11;;;;;;;49.35;31.35;;;;;;;9.11;100.00;101464.75;7397877;19;20018;-66
2022/04/15 01:23:43;;;;;;;44.95;30.60;;;;;;;9.11;100.00;101467.38;7396971;19;20026;-67
2022/04/15 01:26:11;;;;;;;44.08;29.30;;;;;;;9.12;100.00;101476.06;7397387;19;20018;-67
2022/04/15 01:28:39;;;;;;;47.80;29.42;;;;;;;9.12;100.00;101471.72;7399284;19;20022;-67
2022/04/15 01:31:07;;;;;;;50.60;30.73;;;;;;;9.12;100.00;101479.59;7397494;19;20018;-67
2022/04/15 01:33:35;;;;;;;49.85;31.60;;;;;;;9.12;100.00;101469.09;7396751;19;20018;-67
2022/04/15 01:36:03;;;;;;;45.10;29.80;;;;;;;9.13;100.00;101467.34;7396766;19;20027;-67
2022/04/15 01:38:32;;;;;;;47.95;30.63;;;;;;;9.13;100.00;101469.97;7396782;19;20031;-67
2022/04/15 01:41:02;;;;;;;48.03;28.60;;;;;;;9.12;100.00;101470.84;7396300;19;20019;-66
2022/04/15 01:43:30;;;;;;;45.47;28.88;;;;;;;9.13;100.00;101475.19;7397029;19;20019;-66
2022/04/15 01:45:59;;;;;;;47.88;30.10;;;;;;;9.12;100.00;101474.34;7398747;19;20019;-66
2022/04/15 01:48:27;;;;;;;44.95;29.25;;;;;;;9.11;100.00;101477.84;7396497;19;20031;-66
2022/04/15 01:50:55;;;;;;;40.58;29.10;;;;;;;9.12;100.00;101473.44;7397169;19;20018;-67
2022/04/15 01:53:24;;;;;;;42.60;29.85;;;;;;;9.11;100.00;101464.75;7398060;19;20401;-66
2022/04/15 01:55:52;;;;;;;42.88;29.33;;;;;;;9.11;100.00;101471.72;7396235;19;20015;-66
2022/04/15 01:58:23;;;;;;;44.03;29.23;;;;;;;9.12;100.00;101483.94;7394000;19;20023;-66
2022/04/15 02:00:51;;;;;;;41.70;28.98;;;;;;;9.11;100.00;101483.06;7396308;19;20019;-66
2022/04/15 02:03:19;;;;;;;38.33;27.20;;;;;;;9.13;100.00;101481.28;7395875;19;20014;-66
2022/04/15 02:05:53;;;;;;;43.50;29.55;;;;;;;9.11;100.00;101483.06;7398078;19;20018;-66
2022/04/15 02:08:22;;;;;;;43.10;28.40;;;;;;;9.11;100.00;101475.22;7396174;19;20419;-66
2022/04/15 02:10:50;;;;;;;40.60;30.17;;;;;;;9.13;100.00;101488.28;7395849;19;20018;-66
2022/04/15 02:13:18;;;;;;;39.22;28.40;;;;;;;9.11;100.00;101480.44;7395818;19;20015;-67
2022/04/15 02:15:49;;;;;;;42.15;29.25;;;;;;;9.11;100.00;101484.78;7395909;19;20018;-66
2022/04/15 02:18:17;;;;;;;42.33;28.55;;;;;;;9.09;100.00;101487.44;7397989;19;20031;-65
2022/04/15 02:20:45;;;;;;;40.10;28.38;;;;;;;9.08;100.00;101490.06;7396395;19;20023;-67
2022/04/15 02:23:13;;;;;;;43.70;29.17;;;;;;;9.06;100.00;101489.19;7396423;19;20019;-66
2022/04/15 02:25:41;;;;;;;35.65;27.88;;;;;;;9.04;100.00;101490.97;7397416;19;20031;-66
2022/04/15 02:28:09;;;;;;;39.67;27.48;;;;;;;9.02;100.00;101487.47;7397291;19;20022;-67
2022/04/15 02:30:37;;;;;;;37.13;28.63;;;;;;;9.01;100.00;101493.56;7396097;19;20039;-66
2022/04/15 02:33:08;;;;;;;38.45;26.67;;;;;;;8.98;100.00;101498.81;7396749;19;20486;-66
2022/04/15 02:35:36;;;;;;;41.55;26.73;;;;;;;8.96;100.00;101499.69;7395552;19;20044;-67
2022/04/15 02:38:04;;;;;;;38.85;26.73;;;;;;;8.94;100.00;101490.97;7395077;19;20044;-67
2022/04/15 02:40:33;;;;;;;36.22;26.15;;;;;;;8.93;100.00;101491.88;7394683;19;20011;-66
2022/04/15 02:43:02;;;;;;;39.50;27.35;;;;;;;8.89;99.52;101518.91;7396139;19;20227;-65
2022/04/15 02:45:31;;;;;;;34.35;26.75;;;;;;;8.89;99.48;101499.72;7395005;19;20018;-66
2022/04/15 02:47:59;;;;;;;32.38;25.40;;;;;;;8.85;98.93;101505.84;7396631;19;20035;-66
2022/04/15 02:50:30;;;;;;;32.08;24.95;;;;;;;8.80;98.56;101508.47;7395791;19;20039;-66
2022/04/15 02:53:01;;;;;;;35.33;24.65;;;;;;;8.79;98.72;101506.72;7396755;19;20031;-66
2022/04/15 02:55:29;;;;;;;30.35;24.02;;;;;;;8.78;98.34;101504.97;7395042;19;20031;-67
2022/04/15 02:57:57;;;;;;;30.67;24.25;;;;;;;8.73;97.81;101507.59;7394283;19;20483;-66
2022/04/15 03:00:25;;;;;;;29.48;23.05;;;;;;;8.70;98.05;101511.97;7395450;19;20022;-66
2022/04/15 03:02:54;;;;;;;32.53;23.08;;;;;;;8.63;97.47;101517.22;7395572;19;20473;-66
2022/04/15 03:05:23;;;;;;;34.40;23.10;;;;;;;8.58;97.08;101505.88;7394224;19;20035;-66
2022/04/15 03:07:53;;;;;;;30.02;23.10;;;;;;;8.52;96.87;101513.72;7396112;19;20018;-67
2022/04/15 03:10:21;;;;;;;30.30;23.02;;;;;;;8.42;96.00;101517.19;7395883;19;20022;-66
2022/04/15 03:12:50;;;;;;;30.95;22.55;;;;;;;8.36;95.07;101533.75;7395591;19;20478;-66
2022/04/15 03:15:18;;;;;;;28.30;20.20;;;;;;;8.29;95.36;101527.66;7394218;19;20022;-66
2022/04/15 03:17:46;;;;;;;27.92;20.92;;;;;;;8.26;95.61;101527.63;7393967;19;20019;-66
2022/04/15 03:20:14;;;;;;;28.67;18.60;;;;;;;8.20;94.14;101532.00;7393948;19;20026;-66
2022/04/15 03:22:45;;;;;;;23.98;17.95;;;;;;;8.15;94.38;101532.88;7395298;19;20018;-67
2022/04/15 03:25:17;;;;;;;25.55;16.88;;;;;;;8.06;92.93;101539.81;7395980;19;20024;-67
2022/04/15 03:27:45;;;;;;;24.23;16.75;;;;;;;8.02;93.01;101538.09;7395901;19;20018;-67
2022/04/15 03:30:14;;;;;;;24.45;17.20;;;;;;;7.95;93.27;101542.44;7393664;19;20023;-66
2022/04/15 03:32:47;;;;;;;22.98;16.88;;;;;;;7.84;92.62;101534.56;7393623;19;20022;-66
2022/04/15 03:35:20;;;;;;;23.83;17.52;;;;;;;7.78;92.61;101545.84;7394119;19;20019;-66
2022/04/15 03:37:48;;;;;;;23.15;17.25;;;;;;;7.74;93.03;101551.09;7394831;19;20522;-66
2022/04/15 03:40:19;;;;;;;24.67;17.55;;;;;;;7.72;93.57;101560.66;7392746;19;20014;-66
2022/04/15 03:42:48;;;;;;;23.08;17.10;;;;;;;7.65;92.82;101571.06;7394950;19;20026;-67
2022/04/15 03:45:19;;;;;;;27.65;16.45;;;;;;;7.66;93.09;101562.38;7394576;19;20392;-67
2022/04/15 03:47:47;;;;;;;25.42;16.98;;;;;;;7.62;93.78;101554.50;7392933;19;20518;-67
2022/04/15 03:50:16;;;;;;;22.63;16.55;;;;;;;7.65;93.60;101564.97;7393781;19;20482;-67
2022/04/15 03:52:47;;;;;;;29.90;17.38;;;;;;;7.61;92.51;101564.09;7392999;19;20023;-67
2022/04/15 03:55:19;;;;;;;21.02;15.40;;;;;;;7.56;93.07;101554.50;7395339;19;20037;-67
2022/04/15 03:57:48;;;;;;;23.80;16.67;;;;;;;7.56;93.15;101560.59;7395093;19;20018;-66
2022/04/15 04:00:19;;;;;;;22.88;16.85;;;;;;;7.52;92.88;101564.06;7393925;19;20029;-66
2022/04/15 04:02:55;;;;;;;23.35;15.75;;;;;;;7.50;93.02;101568.41;7394599;19;20384;-67
2022/04/15 04:05:24;;;;;;;24.38;17.15;;;;;;;7.50;93.32;101568.41;7392548;19;20499;-67
2022/04/15 04:07:53;;;;;;;22.65;16.92;;;;;;;7.50;93.35;101571.00;7392635;19;20038;-67
2022/04/15 04:10:24;;;;;;;24.30;17.52;;;;;;;7.52;93.77;101573.63;7393588;19;20022;-67
2022/04/15 04:12:52;;;;;;;24.73;16.33;;;;;;;7.54;93.50;101569.28;7394600;19;20014;-67
2022/04/15 04:15:20;;;;;;;24.98;16.88;;;;;;;7.56;93.70;101578.03;7391813;19;20376;-67
2022/04/15 04:17:49;;;;;;;24.77;16.83;;;;;;;7.59;93.59;101583.25;7392033;19;20022;-67
2022/04/15 04:20:18;;;;;;;21.80;15.75;;;;;;;7.59;93.35;101584.09;7393392;19;20022;-66
2022/04/15 04:22:46;;;;;;;20.98;16.00;;;;;;;7.60;93.33;101585.00;7399370;19;20078;-67
2022/04/15 04:25:14;;;;;;;23.90;17.27;;;;;;;7.55;92.77;101579.75;7401521;19;20022;-67
2022/04/15 04:27:45;;;;;;;22.92;15.82;;;;;;;7.51;92.74;101580.59;7400939;19;20482;-67
2022/04/15 04:30:15;;;;;;;23.48;16.33;;;;;;;7.47;92.65;101587.53;7398157;19;20048;-67
2022/04/15 04:32:49;;;;;;;23.85;17.15;;;;;;;7.44;92.70;101587.53;7401003;19;20018;-66
2022/04/15 04:35:18;;;;;;;28.27;16.95;;;;;;;7.42;92.94;101584.03;7401199;19;20018;-67
2022/04/15 04:37:46;;;;;;;25.40;17.80;;;;;;;7.42;93.06;101598.81;7400952;19;20021;-67
2022/04/15 04:40:16;;;;;;;21.13;16.52;;;;;;;7.39;92.89;101598.81;7397602;19;20474;-68
2022/04/15 04:42:47;;;;;;;23.38;16.88;;;;;;;7.38;93.32;101597.94;7400442;19;20491;-67
2022/04/15 04:45:16;;;;;;;22.60;17.20;;;;;;;7.39;93.58;101610.13;7398166;19;20022;-67
2022/04/15 04:47:46;;;;;;;22.95;15.65;;;;;;;7.37;93.10;101608.34;7400677;19;20011;-67
2022/04/15 04:50:15;;;;;;;18.42;15.05;;;;;;;7.36;92.53;101614.47;7397740;19;20014;-67
2022/04/15 04:52:43;;;;;;;18.95;15.52;;;;;;;7.34;92.78;101607.50;7397830;19;20023;-66
2022/04/15 04:55:12;;;;;;;21.40;15.98;;;;;;;7.36;92.81;101614.47;7397869;19;20019;-66
2022/04/15 04:57:46;;;;;;;19.27;14.65;;;;;;;7.34;92.62;101623.16;7397644;19;20035;-66
2022/04/15 05:00:19;;;;;;;18.73;15.00;;;;;;;7.33;92.60;101618.81;7397931;19;20019;-66
2022/04/15 05:02:48;;;;;;;19.50;14.00;;;;;;;7.32;92.32;101629.25;7399891;19;20036;-67
2022/04/15 05:05:16;;;;;;;17.60;13.52;;;;;;;7.28;92.00;101637.88;7397499;19;20018;-67
2022/04/15 05:07:44;;;;;;;20.90;14.10;;;;;;;7.23;92.17;101629.16;7397400;19;20031;-67
2022/04/15 05:10:12;;;;;;;19.77;13.82;;;;;;;7.19;92.11;101630.91;7399039;19;20022;-67
2022/04/15 05:12:40;;;;;;;17.85;13.38;;;;;;;7.16;92.06;101628.25;7397351;19;20022;-67
2022/04/15 05:15:11;;;;;;;18.88;13.32;;;;;;;7.15;92.24;101626.50;7396691;19;20458;-67
2022/04/15 05:17:42;;;;;;;18.60;12.90;;;;;;;7.15;91.94;101621.28;7399771;19;20078;-68
2022/04/15 05:20:11;;;;;;;16.88;13.30;;;;;;;7.14;92.08;101624.75;7397459;19;20022;-69
2022/04/15 05:22:39;;;;;;;16.95;13.50;;;;;;;7.15;92.03;101626.50;7397039;19;20026;-67
2022/04/15 05:25:08;;;;;;;14.80;12.13;;;;;;;7.16;92.06;101636.09;7397300;19;20018;-67
2022/04/15 05:27:36;;;;;;;14.60;11.65;;;;;;;7.17;92.08;101635.22;7396806;19;20019;-67
2022/04/15 05:30:07;;;;;;;17.50;12.00;;;;;;;7.17;91.82;101637.84;7396465;19;20026;-67
2022/04/15 05:32:35;;;;;;;17.23;12.43;;;;;;;7.17;91.65;101636.09;7397576;19;20014;-67
2022/04/15 05:35:07;;;;;;;19.45;11.85;;;;;;;7.17;91.73;101637.84;7397936;19;20018;-67
2022/04/15 05:37:35;;;;;;;15.30;11.75;;;;;;;7.19;91.77;101641.34;7399171;19;20014;-67
2022/04/15 05:40:17;;;;;;;16.05;11.18;;;;;;;7.22;91.76;101643.97;7396616;19;20040;-67
2022/04/15 05:42:45;;;;;;;17.38;11.48;;;;;;;7.22;91.53;101641.34;7397699;19;20031;-66
2022/04/15 05:45:14;;;;;;;13.93;11.70;;;;;;;7.22;91.25;101637.88;7396260;19;20110;-67
2022/04/15 05:47:44;;;;;;;13.57;10.27;;;;;;;7.22;91.11;101643.97;7398718;19;20023;-67
2022/04/15 05:50:15;;;;;;;15.55;11.75;;;;;;;7.22;91.32;101645.72;7396674;19;20018;-66
2022/04/15 05:52:43;;;;;;;15.98;11.43;;;;;;;7.22;91.37;101648.31;7395952;19;20529;-66
2022/04/15 05:55:11;;;;;;;12.43;10.50;;;;;;;7.22;91.01;101648.31;7396077;19;20027;-68
2022/04/15 05:57:39;;;;;;;12.18;10.85;;;;;;;7.22;91.12;101643.97;7396133;19;20015;-68
2022/04/15 06:00:09;;;;;;;13.65;9.57;;;;;;;7.21;90.48;101672.66;7395953;19;20035;-67
2022/04/15 06:02:37;;;;;;;11.52;9.77;;;;;;;7.20;90.71;101655.25;7398010;19;20022;-66
2022/04/15 06:05:06;;;;;;;15.65;9.98;;;;;;;7.20;91.04;101652.66;7395832;19;20015;-67
2022/04/15 06:07:37;;;;;;;14.50;9.95;;;;;;;7.18;91.01;101650.91;7395291;19;20397;-66
2022/04/15 06:10:07;;;;;;;13.23;9.52;;;;;;;7.22;91.15;101654.41;7395817;19;20022;-67
2022/04/15 06:12:54;;;;;;;13.32;9.65;;;;;;;7.23;91.07;101656.16;7397654;19;20015;-67
2022/04/15 06:15:23;;;;;;;13.93;9.85;;;;;;;7.22;90.50;101654.41;7398082;19;20039;-67
2022/04/15 06:17:51;;;;;;;11.15;9.38;;;;;;;7.21;90.82;101663.09;7397223;19;20022;-67
2022/04/15 06:20:20;;;;;;;15.55;10.45;;;;;;;7.21;90.67;101660.47;7395322;19;20026;-67
2022/04/15 06:22:51;;;;;;;12.38;9.20;;;;;;;7.20;90.51;101666.56;7397209;19;20352;-67
2022/04/15 06:25:19;;;;;;;14.20;9.45;;;;;;;7.21;90.73;101657.88;7396405;19;20132;-66
2022/04/15 06:27:47;;;;;;;15.32;10.77;;;;;;;7.23;90.92;101677.03;7397331;19;20348;-67
2022/04/15 06:30:15;;;;;;;13.88;9.43;;;;;;;7.23;90.78;101669.22;7395117;19;20040;-67
2022/04/15 06:32:44;;;;;;;15.02;9.82;;;;;;;7.22;90.76;101667.44;7395222;19;20117;-66
2022/04/15 06:35:12;;;;;;;13.95;10.00;;;;;;;7.25;90.87;101670.06;7397043;19;20022;-67
2022/04/15 06:37:40;;;;;;;11.73;9.20;;;;;;;7.27;90.75;101676.19;7394965;19;20018;-67
2022/04/15 06:40:13;;;;;;;16.67;9.73;;;;;;;7.27;90.15;101686.63;7395550;19;20018;-68
2022/04/15 06:42:41;;;;;;;15.98;10.02;;;;;;;7.27;90.48;101676.19;7395319;19;20018;-68
2022/04/15 06:45:11;;;;;;;13.88;9.88;;;;;;;7.30;90.58;101693.59;7393399;19;20432;-68
2022/04/15 06:47:40;;;;;;;12.93;9.55;;;;;;;7.30;90.62;101676.22;7397061;19;20011;-67
2022/04/15 06:50:09;;;;;;;13.20;9.95;;;;;;;7.31;90.87;101685.78;7395776;19;20022;-66
2022/04/15 06:52:37;;;;;;;14.48;10.13;;;;;;;7.33;90.93;101686.69;7396245;19;20018;-67
2022/04/15 06:55:06;;;;;;;12.90;10.18;;;;;;;7.34;90.99;101680.59;7396315;19;20022;-68
2022/04/15 06:57:37;;;;;;;16.77;11.15;;;;;;;7.33;90.94;101673.63;7394448;19;20018;-67
2022/04/15 07:00:08;;;;;;;15.13;10.27;;;;;;;7.34;91.34;101677.09;7395193;19;20023;-70
2022/04/15 07:02:36;;;;;;;15.27;11.00;;;;;;;7.32;91.15;101682.31;7396567;19;20049;-65
2022/04/15 07:05:05;;;;;;;15.85;11.60;;;;;;;7.32;91.39;101684.91;7394669;19;20490;-65
2022/04/15 07:07:33;;;;;;;12.40;10.45;;;;;;;7.32;91.01;101692.75;7396007;19;20074;-65
2022/04/15 07:10:02;;;;;;;15.50;10.82;;;;;;;7.33;91.02;101701.47;7394289;19;20071;-65
2022/04/15 07:12:30;;;;;;;13.25;10.98;;;;;;;7.31;90.80;101679.69;7396042;19;20039;-65
2022/04/15 07:15:01;;;;;;;13.68;10.60;;;;;;;7.32;90.85;101695.38;7395420;19;20035;-65
2022/04/15 07:17:29;;;;;;;13.45;10.38;;;;;;;7.33;90.92;101684.06;7393755;19;20026;-66
2022/04/15 07:19:58;;;;;;;14.63;11.77;;;;;;;7.38;90.70;101688.44;7393962;19;20026;-65
2022/04/15 07:22:26;;;;;;;12.57;11.00;;;;;;;7.41;90.96;101693.69;7393769;19;20035;-66
2022/04/15 07:24:54;;;;;;;16.73;11.68;;;;;;;7.46;90.80;101699.81;7394609;19;20031;-66
2022/04/15 07:27:22;;;;;;;13.82;10.73;;;;;;;7.50;90.28;101694.59;7393585;19;20031;-66
2022/04/15 07:29:50;;;;;;;14.52;11.13;;;;;;;7.54;90.01;101700.72;7395002;19;20018;-65
2022/04/15 07:32:27;;;;;;;16.15;10.95;;;;;;;7.58;90.05;101710.34;7395315;19;20019;-64
2022/04/15 07:34:55;;;;;;;13.52;11.40;;;;;;;7.62;89.74;101709.50;7393895;19;20027;-66
2022/04/15 07:37:24;;;;;;;12.75;10.13;;;;;;;7.61;89.20;101706.88;7394938;19;20074;-65
2022/04/15 07:39:52;;;;;;;13.63;10.18;;;;;;;7.66;89.12;101713.88;7394018;19;20018;-65
2022/04/15 07:42:20;;;;;;;13.98;9.70;;;;;;;7.70;89.23;101721.72;7393328;19;20027;-65
2022/04/15 07:44:49;;;;;;;15.48;10.95;;;;;;;7.70;88.58;101709.53;7393628;19;20474;-64
2022/04/15 07:47:17;;;;;;;13.75;9.60;;;;;;;7.75;88.95;101720.03;7393012;19;20023;-65
2022/04/15 07:49:47;;;;;;;12.77;9.73;;;;;;;7.75;88.21;101713.03;7394200;19;20014;-65
2022/04/15 07:52:15;;;;;;;12.18;10.25;;;;;;;7.78;88.90;101720.88;7394330;19;20032;-65
2022/04/15 07:54:44;;;;;;;12.30;9.38;;;;;;;7.81;88.23;101717.44;7394406;19;20030;-64
2022/04/15 07:57:12;;;;;;;12.25;10.18;;;;;;;7.83;87.82;101729.66;7398307;19;20086;-65
2022/04/15 07:59:40;;;;;;;12.32;10.27;;;;;;;7.83;87.69;101724.44;7401950;19;20036;-65
2022/04/15 08:02:09;;;;;;;11.65;10.38;;;;;;;7.86;87.07;101725.28;7401800;19;20504;-65
2022/04/15 08:04:41;;;;;;;13.45;10.73;;;;;;;7.87;87.14;101721.81;7400640;19;20439;-65
2022/04/15 08:07:12;;;;;;;14.77;10.68;;;;;;;7.91;87.58;101726.19;7402390;19;20025;-64
2022/04/15 08:09:41;;;;;;;11.90;10.07;;;;;;;7.92;86.88;101720.09;7398601;19;20514;-65
2022/04/15 08:12:11;;;;;;;14.65;10.65;;;;;;;7.94;86.45;101729.69;7402584;19;20022;-65
2022/04/15 08:14:40;;;;;;;15.75;10.57;;;;;;;7.97;87.04;101734.94;7399359;19;20018;-65
2022/04/15 08:17:08;;;;;;;12.23;10.30;;;;;;;8.00;86.87;101734.09;7398919;19;20348;-65
2022/04/15 08:19:37;;;;;;;11.68;9.95;;;;;;;8.05;87.42;101737.59;7401231;19;20374;-63
2022/04/15 08:22:09;;;;;;;12.20;10.13;;;;;;;8.08;86.37;101732.38;7401396;19;20027;-66
2022/04/15 08:24:42;;;;;;;14.27;9.55;;;;;;;8.11;86.34;101734.13;7400978;19;20078;-65
2022/04/15 08:27:11;;;;;;;14.43;10.43;;;;;;;8.13;86.61;101740.22;7398695;19;20014;-65
2022/04/15 08:29:39;;;;;;;12.68;9.50;;;;;;;8.17;86.40;101736.75;7400004;19;20026;-64
2022/04/15 08:32:10;;;;;;;13.65;10.05;;;;;;;8.20;86.12;101746.34;7398082;19;20022;-64
2022/04/15 08:34:38;;;;;;;12.55;9.63;;;;;;;8.24;85.26;101742.88;7401022;19;20030;-64
2022/04/15 08:37:07;;;;;;;11.43;9.75;;;;;;;8.26;85.48;101747.25;7400572;19;20027;-64
2022/04/15 08:39:35;;;;;;;12.77;10.40;;;;;;;8.25;85.60;101740.28;7397322;19;20330;-66
2022/04/15 08:42:09;;;;;;;13.18;10.25;;;;;;;8.34;85.35;101754.25;7398095;19;20010;-65
2022/04/15 08:44:38;;;;;;;13.00;11.05;;;;;;;8.36;84.85;101748.16;7397311;19;20018;-65
2022/04/15 08:47:08;;;;;;;12.07;10.10;;;;;;;8.40;84.06;101746.44;7400145;19;20490;-64
2022/04/15 08:49:37;;;;;;;13.40;10.50;;;;;;;8.42;83.18;101757.78;7399745;19;20542;-64
2022/04/15 08:52:07;;;;;;;11.90;10.35;;;;;;;8.48;84.42;101750.00;7400153;19;20039;-65
2022/04/15 08:54:35;;;;;;;13.95;11.63;;;;;;;8.55;83.76;101753.50;7400501;19;20011;-65
2022/04/15 08:57:06;;;;;;;12.13;10.43;;;;;;;8.61;82.89;101750.91;7400468;19;20019;-65
2022/04/15 08:59:34;;;;;;;11.45;10.07;;;;;;;8.66;84.08;101762.25;7400470;19;20044;-65
2022/04/15 09:02:03;;;;;;;13.07;9.45;;;;;;;8.69;83.73;101767.47;7400064;19;20018;-65
2022/04/15 09:04:32;;;;;;;11.80;9.25;;;;;;;8.68;83.11;101765.75;7397225;19;20424;-65
2022/04/15 09:07:03;;;;;;;15.57;10.23;;;;;;;8.63;82.89;101778.81;7400027;19;20419;-65
2022/04/15 09:09:33;;;;;;;12.02;9.90;;;;;;;8.57;82.92;101777.91;7400000;19;20034;-65
2022/04/15 09:12:04;;;;;;;15.43;10.18;;;;;;;8.50;83.21;101782.25;7399443;19;20023;-65
2022/04/15 09:14:34;;;;;;;12.57;9.38;;;;;;;8.50;83.87;101782.25;7399776;19;20018;-65
2022/04/15 09:17:05;;;;;;;11.32;9.75;;;;;;;8.50;83.94;101786.59;7397257;19;20036;-65
2022/04/15 09:19:35;;;;;;;12.02;9.88;;;;;;;8.51;83.82;101789.22;7396742;19;20015;-65
2022/04/15 09:22:03;;;;;;;13.20;10.50;;;;;;;8.52;83.78;101790.09;7399451;19;20014;-66
2022/04/15 09:24:33;;;;;;;12.57;8.98;;;;;;;8.49;83.60;101798.78;7396477;19;20035;-65
2022/04/15 09:27:05;;;;;;;13.60;10.35;;;;;;;8.44;83.98;101796.16;7396200;19;20018;-65
2022/04/15 09:29:38;;;;;;;12.50;9.45;;;;;;;8.45;83.84;101797.00;7399193;19;20025;-65
2022/04/15 09:32:14;;;;;;;13.40;10.52;;;;;;;8.43;83.43;101799.63;7398125;19;20022;-66
2022/04/15 09:34:55;;;;;;;15.88;10.43;;;;;;;8.43;83.90;101802.25;7398162;19;20018;-66
2022/04/15 09:37:24;;;;;;;13.90;10.70;;;;;;;8.41;84.33;101808.34;7396906;19;20031;-65
2022/04/15 09:40:09;;;;;;;13.90;10.30;;;;;;;8.35;83.41;101808.31;7397825;19;20018;-65
2022/04/15 09:42:37;;;;;;;;;;;;;;;8.36;83.84;101799.59;7399453;19;20394;-66
2022/04/15 09:45:19;;;;;;;15.18;10.27;;;;;;;8.35;84.26;101800.47;7398751;19;19926;-65
2022/04/15 09:47:53;;;;;;;13.07;10.05;;;;;;;8.34;84.22;101807.44;7396983;19;20022;-65
2022/04/15 09:50:27;;;;;;;13.80;10.45;;;;;;;8.34;84.34;101801.31;7398240;19;20017;-65
2022/04/15 09:52:56;;;;;;;14.40;10.43;;;;;;;8.29;85.17;101806.50;7398729;19;20029;-65
2022/04/15 09:55:25;;;;;;;14.68;11.20;;;;;;;8.28;85.65;101812.63;7398321;19;20018;-66
2022/04/15 09:57:54;;;;;;;16.55;12.63;;;;;;;8.23;86.34;101811.75;7398299;19;20052;-64
2022/04/15 10:00:25;;;;;;;17.48;13.50;;;;;;;8.16;86.67;101818.66;7397298;19;20039;-64
2022/04/15 10:02:55;;;;;;;16.98;12.43;;;;;;;8.09;87.54;101824.75;7397730;19;20400;-64
2022/04/15 10:05:23;;;;;;;24.48;15.60;;;;;;;8.03;87.61;101822.09;7395771;19;20014;-65
2022/04/15 10:07:52;;;;;;;16.60;12.55;;;;;;;7.99;89.03;101827.28;7397801;19;20014;-65
2022/04/15 10:10:20;;;;;;;17.63;12.18;;;;;;;7.91;90.58;101831.59;7395511;19;20022;-64
2022/04/15 10:12:49;;;;;;;17.95;12.88;;;;;;;7.88;91.71;101834.16;7397730;19;20035;-65
2022/04/15 10:15:19;;;;;;;18.52;13.23;;;;;;;7.83;91.86;101820.19;7397317;19;20491;-65
2022/04/15 10:17:51;;;;;;;20.70;15.23;;;;;;;7.79;90.71;101827.13;7397641;19;20018;-64
2022/04/15 10:20:20;;;;;;;22.20;14.80;;;;;;;7.78;92.69;101827.13;7393630;19;20023;-65
2022/04/15 10:22:48;;;;;;;20.23;14.70;;;;;;;7.75;92.57;101821.91;7395115;19;20027;-65
2022/04/15 10:25:17;;;;;;;22.58;16.35;;;;;;;7.70;92.56;101828.84;7395546;19;20019;-65
2022/04/15 10:27:45;;;;;;;22.55;16.80;;;;;;;7.61;93.30;101808.75;7394564;19;20487;-65
2022/04/15 10:30:18;;;;;;;21.23;14.70;;;;;;;7.66;94.33;101823.56;7396066;19;20015;-65
2022/04/15 10:32:55;;;;;;;22.23;15.38;;;;;;;7.65;93.97;101824.41;7398020;19;20022;-65
2022/04/15 10:35:25;;;;;;;16.90;13.45;;;;;;;7.59;93.61;101836.56;7397351;19;20028;-65
2022/04/15 10:38:00;;;;;;;18.95;13.52;;;;;;;7.58;93.20;101830.47;7394595;19;20401;-66
2022/04/15 10:40:31;;;;;;;21.38;14.77;;;;;;;7.59;93.08;101829.59;7395423;19;20122;-66
2022/04/15 10:43:07;;;;;;;18.63;14.07;;;;;;;7.59;93.42;101837.44;7395972;19;20015;-66
2022/04/15 10:45:38;;;;;;;24.80;15.82;;;;;;;7.59;93.75;101837.44;7396153;19;20035;-66
2022/04/15 10:48:09;;;;;;;22.02;14.45;;;;;;;7.59;93.37;101821.75;7396674;19;20031;-66
2022/04/15 10:50:38;;;;;;;22.23;14.43;;;;;;;7.59;93.64;101833.97;7394894;19;20036;-66
2022/04/15 10:53:34;;;;;;;21.63;14.30;;;;;;;7.61;93.62;101830.50;7394579;19;20018;-65
2022/04/15 10:56:10;;;;;;;22.88;14.90;;;;;;;7.65;93.14;101831.41;7396781;19;20014;-64
2022/04/15 11:01:53;;;;;;;22.35;14.65;;;;;;;7.66;93.77;101834.00;7394592;19;20486;-65
2022/04/15 11:04:27;;;;;;;21.83;15.63;;;;;;;7.65;93.73;101837.47;7395764;19;20384;-65
2022/04/15 11:07:02;;;;;;;21.63;15.50;;;;;;;7.67;93.79;101821.81;7395018;19;20027;-65
2022/04/15 11:09:30;;;;;;;20.23;14.40;;;;;;;7.70;94.29;101826.22;7394533;19;20023;-64
2022/04/15 11:12:06;;;;;;;18.23;13.93;;;;;;;7.73;93.47;101821.88;7394161;19;20102;-66
2022/04/15 11:14:36;;;;;;;24.77;16.20;;;;;;;7.78;93.28;101828.00;7395280;19;20515;-66
2022/04/15 11:17:05;;;;;;;22.33;14.98;;;;;;;7.83;93.70;101830.66;7394426;19;20015;-66
2022/04/15 11:19:36;;;;;;;22.83;14.52;;;;;;;7.88;93.23;101823.72;7395268;19;20019;-66
2022/04/15 11:22:04;;;;;;;20.90;15.02;;;;;;;7.94;92.98;101830.75;7394415;19;20022;-66
2022/04/15 11:24:36;;;;;;;19.95;14.60;;;;;;;7.97;92.36;101831.63;7393876;19;20466;-66
2022/04/15 11:27:06;;;;;;;20.90;14.38;;;;;;;8.00;92.34;101825.56;7393611;19;20490;-66
2022/04/15 11:29:42;;;;;;;18.63;13.90;;;;;;;8.01;91.32;101823.81;7395359;19;20018;-66
2022/04/15 11:32:12;;;;;;;21.00;12.98;;;;;;;8.01;91.42;101840.34;7393576;19;20014;-67